Laredo International Airport
KLRD : now visible

Aeroporto :











RITROVATECI SU...

 
LOGIN :

Iscrizione | Disclaimer

   EN    FR    IT 

 









Sommario :    VFR   VFR Marginale   IFR   IFR Intensivo   IFR Molto Intensivo
Visibilità : 
Base nubi : 
>= 8 km
>= 3000ft
5 / 8 km
1000 / 3000 ft
1500m / 5 km
500 / 1000 ft
800 / 1500m
200 / 500 ft
< 800m
< 200 ft
Simboli :   Temporali  Nebbia  Neve Forte  Precipitazioni Forti  Vento > 20 kt






- Altitudine del aeroporto : 508 ft
- Codice IATA : LRD


KLRD - Laredo International

ULTIMO METAR :
  • 250956Z AUTO 14010KT 10SM OVC018 27/24 A2989 RMK AO2 SLP119 T02670239

METARs OBSOLETI :
  • 250856Z AUTO 15010KT 10SM OVC018 27/24 A2989 RMK AO2 SLP118 T02670239 56008
  • 250819Z AUTO 14010KT 10SM BKN018 27/23 A2990 RMK AO2
  • 250756Z AUTO 14010KT 10SM FEW018 27/23 A2990 RMK AO2 SLP119 T02670233

TAF KLRD
Valido dal 25 a 06 ore il 26 a 06 ore UTC


250532Z 2506/2606 15014KT P6SM SCT035 BKN250
FM250900 14013KT P6SM BKN025
FM251400 16016G25KT P6SM SKC
FIR KZHU / America del Nord



MetMap, La meteo Aeronautica in un colpo d'occhio ! - Copyright ORBIFLY Dicembre 2007 - Disclaimer

ORBIFLY MET'MAP TEAM :

Programmazione e sviluppo : Alexandra Zaïnal
Concezione : Baudouin d'Aumeries
Aiuto per la programmazione : Marc-Olivier Méhu
Supporto tecnico e logistico : Manuel Goepfert
Aiuto per la traduzione : Arnaldo La Scala

Contatto : metmap@orbifly.com




FONTI E CREDITI :

   NOAA       Earth
Advisory